sensor_id;sensor_type;location;lat;lon;timestamp;P1;durP1;ratioP1;P2;durP2;ratioP2
73264;SDS011;61493;51.008;14.088;2023-08-20T00:02:23;10.32;;;6.75;;
73264;SDS011;61493;51.008;14.088;2023-08-20T00:04:48;11.80;;;7.05;;
73264;SDS011;61493;51.008;14.088;2023-08-20T00:07:14;13.32;;;6.43;;
73264;SDS011;61493;51.008;14.088;2023-08-20T00:09:40;7.88;;;6.13;;
73264;SDS011;61493;51.008;14.088;2023-08-20T00:12:06;6.77;;;5.57;;
73264;SDS011;61493;51.008;14.088;2023-08-20T00:17:15;8.55;;;6.00;;
73264;SDS011;61493;51.008;14.088;2023-08-20T00:19:40;8.07;;;6.15;;
73264;SDS011;61493;51.008;14.088;2023-08-20T00:22:05;8.60;;;6.45;;
73264;SDS011;61493;51.008;14.088;2023-08-20T00:24:31;7.90;;;6.18;;
73264;SDS011;61493;51.008;14.088;2023-08-20T00:26:56;7.68;;;5.63;;
73264;SDS011;61493;51.008;14.088;2023-08-20T00:29:21;9.07;;;6.20;;
73264;SDS011;61493;51.008;14.088;2023-08-20T00:31:46;8.53;;;5.70;;
73264;SDS011;61493;51.008;14.088;2023-08-20T00:34:12;8.70;;;6.73;;
73264;SDS011;61493;51.008;14.088;2023-08-20T00:36:37;9.57;;;6.07;;
73264;SDS011;61493;51.008;14.088;2023-08-20T00:39:02;7.17;;;5.73;;
73264;SDS011;61493;51.008;14.088;2023-08-20T00:41:27;7.25;;;5.78;;
73264;SDS011;61493;51.008;14.088;2023-08-20T00:43:52;9.97;;;6.50;;
73264;SDS011;61493;51.008;14.088;2023-08-20T00:46:18;7.35;;;6.25;;
73264;SDS011;61493;51.008;14.088;2023-08-20T00:48:43;8.95;;;6.55;;
73264;SDS011;61493;51.008;14.088;2023-08-20T00:51:08;9.27;;;6.40;;
73264;SDS011;61493;51.008;14.088;2023-08-20T00:53:33;9.27;;;6.47;;
73264;SDS011;61493;51.008;14.088;2023-08-20T00:55:59;7.53;;;5.57;;
73264;SDS011;61493;51.008;14.088;2023-08-20T00:58:24;10.00;;;7.20;;
73264;SDS011;61493;51.008;14.088;2023-08-20T01:00:49;7.53;;;5.57;;
73264;SDS011;61493;51.008;14.088;2023-08-20T01:03:14;9.13;;;5.90;;
73264;SDS011;61493;51.008;14.088;2023-08-20T01:05:41;9.00;;;6.50;;
73264;SDS011;61493;51.008;14.088;2023-08-20T01:13:00;6.82;;;5.88;;
73264;SDS011;61493;51.008;14.088;2023-08-20T01:15:25;6.90;;;5.78;;
73264;SDS011;61493;51.008;14.088;2023-08-20T01:17:51;7.83;;;5.53;;
73264;SDS011;61493;51.008;14.088;2023-08-20T01:20:16;8.05;;;5.80;;
73264;SDS011;61493;51.008;14.088;2023-08-20T01:27:58;7.15;;;5.43;;
73264;SDS011;61493;51.008;14.088;2023-08-20T01:30:28;8.57;;;5.63;;
73264;SDS011;61493;51.008;14.088;2023-08-20T01:32:53;9.00;;;6.45;;
73264;SDS011;61493;51.008;14.088;2023-08-20T01:35:19;9.65;;;6.22;;
73264;SDS011;61493;51.008;14.088;2023-08-20T01:37:44;7.78;;;6.03;;
73264;SDS011;61493;51.008;14.088;2023-08-20T01:40:10;7.43;;;5.43;;
73264;SDS011;61493;51.008;14.088;2023-08-20T01:42:36;6.70;;;5.43;;
73264;SDS011;61493;51.008;14.088;2023-08-20T01:45:01;8.98;;;5.47;;
73264;SDS011;61493;51.008;14.088;2023-08-20T01:47:26;8.13;;;6.20;;
73264;SDS011;61493;51.008;14.088;2023-08-20T01:49:51;9.20;;;6.50;;
73264;SDS011;61493;51.008;14.088;2023-08-20T01:52:17;10.27;;;7.30;;
73264;SDS011;61493;51.008;14.088;2023-08-20T01:54:42;7.97;;;5.70;;
73264;SDS011;61493;51.008;14.088;2023-08-20T01:57:07;7.18;;;5.75;;
73264;SDS011;61493;51.008;14.088;2023-08-20T01:59:33;7.47;;;5.85;;
73264;SDS011;61493;51.008;14.088;2023-08-20T02:01:58;10.87;;;5.67;;
73264;SDS011;61493;51.008;14.088;2023-08-20T02:04:23;8.33;;;5.00;;
73264;SDS011;61493;51.008;14.088;2023-08-20T02:06:48;10.67;;;5.70;;
73264;SDS011;61493;51.008;14.088;2023-08-20T02:09:13;6.77;;;5.20;;
73264;SDS011;61493;51.008;14.088;2023-08-20T02:11:38;6.88;;;5.68;;
73264;SDS011;61493;51.008;14.088;2023-08-20T02:14:04;8.10;;;5.93;;
73264;SDS011;61493;51.008;14.088;2023-08-20T02:16:29;7.43;;;5.88;;
73264;SDS011;61493;51.008;14.088;2023-08-20T02:18:55;7.32;;;5.75;;
73264;SDS011;61493;51.008;14.088;2023-08-20T02:21:20;7.97;;;5.80;;
73264;SDS011;61493;51.008;14.088;2023-08-20T02:23:45;8.80;;;6.30;;
73264;SDS011;61493;51.008;14.088;2023-08-20T02:26:11;8.27;;;5.97;;
73264;SDS011;61493;51.008;14.088;2023-08-20T02:28:36;7.53;;;6.37;;
73264;SDS011;61493;51.008;14.088;2023-08-20T02:31:04;9.20;;;6.30;;
73264;SDS011;61493;51.008;14.088;2023-08-20T02:33:29;8.90;;;5.68;;
73264;SDS011;61493;51.008;14.088;2023-08-20T02:35:54;7.33;;;5.07;;
73264;SDS011;61493;51.008;14.088;2023-08-20T02:38:19;7.50;;;5.63;;
73264;SDS011;61493;51.008;14.088;2023-08-20T02:40:44;7.70;;;5.63;;
73264;SDS011;61493;51.008;14.088;2023-08-20T02:43:09;7.13;;;5.77;;
73264;SDS011;61493;51.008;14.088;2023-08-20T02:45:41;7.32;;;5.38;;
73264;SDS011;61493;51.008;14.088;2023-08-20T02:48:07;9.63;;;6.13;;
73264;SDS011;61493;51.008;14.088;2023-08-20T02:50:32;7.03;;;6.07;;
73264;SDS011;61493;51.008;14.088;2023-08-20T02:52:57;7.25;;;5.47;;
73264;SDS011;61493;51.008;14.088;2023-08-20T02:55:22;5.60;;;4.80;;
73264;SDS011;61493;51.008;14.088;2023-08-20T02:57:48;7.50;;;5.30;;
73264;SDS011;61493;51.008;14.088;2023-08-20T03:00:13;7.43;;;5.13;;
73264;SDS011;61493;51.008;14.088;2023-08-20T03:02:38;8.35;;;5.75;;
73264;SDS011;61493;51.008;14.088;2023-08-20T03:05:06;10.32;;;6.18;;
73264;SDS011;61493;51.008;14.088;2023-08-20T03:07:32;7.05;;;5.30;;
73264;SDS011;61493;51.008;14.088;2023-08-20T03:09:57;8.00;;;5.63;;
73264;SDS011;61493;51.008;14.088;2023-08-20T03:12:22;6.78;;;5.90;;
73264;SDS011;61493;51.008;14.088;2023-08-20T03:14:47;8.87;;;6.20;;
73264;SDS011;61493;51.008;14.088;2023-08-20T03:17:12;6.30;;;5.70;;
73264;SDS011;61493;51.008;14.088;2023-08-20T03:19:47;9.63;;;6.15;;
73264;SDS011;61493;51.008;14.088;2023-08-20T03:22:18;7.85;;;5.68;;
73264;SDS011;61493;51.008;14.088;2023-08-20T03:24:43;8.82;;;5.30;;
73264;SDS011;61493;51.008;14.088;2023-08-20T03:27:08;7.50;;;6.00;;
73264;SDS011;61493;51.008;14.088;2023-08-20T03:29:34;7.93;;;5.82;;
73264;SDS011;61493;51.008;14.088;2023-08-20T03:31:59;7.95;;;5.70;;
73264;SDS011;61493;51.008;14.088;2023-08-20T03:34:24;7.30;;;5.60;;
73264;SDS011;61493;51.008;14.088;2023-08-20T03:36:50;6.87;;;5.53;;
73264;SDS011;61493;51.008;14.088;2023-08-20T03:39:15;9.20;;;7.00;;
73264;SDS011;61493;51.008;14.088;2023-08-20T03:41:40;8.80;;;6.40;;
73264;SDS011;61493;51.008;14.088;2023-08-20T03:44:06;8.50;;;6.80;;
73264;SDS011;61493;51.008;14.088;2023-08-20T03:46:31;8.82;;;6.60;;
73264;SDS011;61493;51.008;14.088;2023-08-20T03:48:56;8.70;;;6.07;;
73264;SDS011;61493;51.008;14.088;2023-08-20T03:51:21;7.60;;;5.50;;
73264;SDS011;61493;51.008;14.088;2023-08-20T03:53:46;6.90;;;5.53;;
73264;SDS011;61493;51.008;14.088;2023-08-20T03:56:11;6.97;;;5.43;;
73264;SDS011;61493;51.008;14.088;2023-08-20T03:58:37;6.63;;;5.70;;
73264;SDS011;61493;51.008;14.088;2023-08-20T04:01:02;9.52;;;6.43;;
73264;SDS011;61493;51.008;14.088;2023-08-20T04:03:28;7.30;;;5.35;;
73264;SDS011;61493;51.008;14.088;2023-08-20T04:05:53;6.97;;;5.73;;
73264;SDS011;61493;51.008;14.088;2023-08-20T04:08:18;7.07;;;5.70;;
73264;SDS011;61493;51.008;14.088;2023-08-20T04:10:44;9.50;;;6.90;;
73264;SDS011;61493;51.008;14.088;2023-08-20T04:13:10;7.72;;;6.88;;
73264;SDS011;61493;51.008;14.088;2023-08-20T04:15:36;7.13;;;5.90;;
73264;SDS011;61493;51.008;14.088;2023-08-20T04:18:01;9.53;;;7.17;;
73264;SDS011;61493;51.008;14.088;2023-08-20T04:20:26;9.47;;;6.13;;
73264;SDS011;61493;51.008;14.088;2023-08-20T04:22:51;8.37;;;5.97;;
73264;SDS011;61493;51.008;14.088;2023-08-20T04:25:16;8.37;;;6.63;;
73264;SDS011;61493;51.008;14.088;2023-08-20T04:27:42;7.38;;;5.60;;
73264;SDS011;61493;51.008;14.088;2023-08-20T04:30:08;9.73;;;6.85;;
73264;SDS011;61493;51.008;14.088;2023-08-20T04:32:34;8.73;;;6.50;;
73264;SDS011;61493;51.008;14.088;2023-08-20T04:34:59;8.20;;;6.18;;
73264;SDS011;61493;51.008;14.088;2023-08-20T04:37:24;8.95;;;6.63;;
73264;SDS011;61493;51.008;14.088;2023-08-20T04:39:49;8.03;;;6.40;;
73264;SDS011;61493;51.008;14.088;2023-08-20T04:42:15;10.97;;;6.47;;
73264;SDS011;61493;51.008;14.088;2023-08-20T04:44:40;10.47;;;6.67;;
73264;SDS011;61493;51.008;14.088;2023-08-20T04:47:05;10.83;;;6.67;;
73264;SDS011;61493;51.008;14.088;2023-08-20T04:49:30;9.57;;;6.95;;
73264;SDS011;61493;51.008;14.088;2023-08-20T04:51:55;8.25;;;6.90;;
73264;SDS011;61493;51.008;14.088;2023-08-20T04:54:21;9.80;;;7.20;;
73264;SDS011;61493;51.008;14.088;2023-08-20T04:56:46;14.35;;;7.43;;
73264;SDS011;61493;51.008;14.088;2023-08-20T04:59:11;8.43;;;6.50;;
73264;SDS011;61493;51.008;14.088;2023-08-20T05:01:37;10.02;;;7.35;;
73264;SDS011;61493;51.008;14.088;2023-08-20T05:04:03;10.82;;;8.15;;
73264;SDS011;61493;51.008;14.088;2023-08-20T05:06:28;10.32;;;7.28;;
73264;SDS011;61493;51.008;14.088;2023-08-20T05:08:53;10.17;;;6.80;;
73264;SDS011;61493;51.008;14.088;2023-08-20T05:11:18;10.73;;;7.80;;
73264;SDS011;61493;51.008;14.088;2023-08-20T05:13:45;10.85;;;7.85;;
73264;SDS011;61493;51.008;14.088;2023-08-20T05:16:10;8.93;;;7.15;;
73264;SDS011;61493;51.008;14.088;2023-08-20T05:18:35;14.07;;;7.40;;
73264;SDS011;61493;51.008;14.088;2023-08-20T05:21:00;12.40;;;7.57;;
73264;SDS011;61493;51.008;14.088;2023-08-20T05:23:25;9.53;;;7.50;;
73264;SDS011;61493;51.008;14.088;2023-08-20T05:25:51;10.23;;;8.93;;
73264;SDS011;61493;51.008;14.088;2023-08-20T05:28:16;12.43;;;7.63;;
73264;SDS011;61493;51.008;14.088;2023-08-20T05:30:41;10.77;;;8.03;;
73264;SDS011;61493;51.008;14.088;2023-08-20T05:33:06;9.40;;;7.47;;
73264;SDS011;61493;51.008;14.088;2023-08-20T05:35:31;13.43;;;8.17;;
73264;SDS011;61493;51.008;14.088;2023-08-20T05:37:56;9.33;;;7.07;;
73264;SDS011;61493;51.008;14.088;2023-08-20T05:40:22;10.63;;;8.43;;
73264;SDS011;61493;51.008;14.088;2023-08-20T05:42:47;13.17;;;8.43;;
73264;SDS011;61493;51.008;14.088;2023-08-20T05:45:12;8.93;;;7.53;;
73264;SDS011;61493;51.008;14.088;2023-08-20T05:47:37;11.00;;;8.33;;
73264;SDS011;61493;51.008;14.088;2023-08-20T05:50:02;10.38;;;7.40;;
73264;SDS011;61493;51.008;14.088;2023-08-20T05:52:28;11.63;;;8.35;;
73264;SDS011;61493;51.008;14.088;2023-08-20T05:54:53;11.77;;;7.10;;
73264;SDS011;61493;51.008;14.088;2023-08-20T05:57:18;10.75;;;7.97;;
73264;SDS011;61493;51.008;14.088;2023-08-20T05:59:43;11.00;;;7.83;;
73264;SDS011;61493;51.008;14.088;2023-08-20T06:02:09;10.07;;;8.20;;
73264;SDS011;61493;51.008;14.088;2023-08-20T06:04:34;9.63;;;7.93;;
73264;SDS011;61493;51.008;14.088;2023-08-20T06:06:59;12.30;;;7.50;;
73264;SDS011;61493;51.008;14.088;2023-08-20T06:09:24;11.73;;;7.93;;
73264;SDS011;61493;51.008;14.088;2023-08-20T06:11:49;10.20;;;8.32;;
73264;SDS011;61493;51.008;14.088;2023-08-20T06:14:16;8.85;;;7.28;;
73264;SDS011;61493;51.008;14.088;2023-08-20T06:16:41;13.63;;;8.13;;
73264;SDS011;61493;51.008;14.088;2023-08-20T06:19:06;12.98;;;8.18;;
73264;SDS011;61493;51.008;14.088;2023-08-20T06:21:32;10.10;;;7.23;;
73264;SDS011;61493;51.008;14.088;2023-08-20T06:23:57;10.30;;;7.40;;
73264;SDS011;61493;51.008;14.088;2023-08-20T06:26:22;11.40;;;8.02;;
73264;SDS011;61493;51.008;14.088;2023-08-20T06:28:47;9.70;;;7.75;;
73264;SDS011;61493;51.008;14.088;2023-08-20T06:31:13;11.13;;;8.30;;
73264;SDS011;61493;51.008;14.088;2023-08-20T06:33:38;9.87;;;7.57;;
73264;SDS011;61493;51.008;14.088;2023-08-20T06:36:03;10.07;;;8.10;;
73264;SDS011;61493;51.008;14.088;2023-08-20T06:38:29;10.50;;;7.50;;
73264;SDS011;61493;51.008;14.088;2023-08-20T06:40:55;10.93;;;8.10;;
73264;SDS011;61493;51.008;14.088;2023-08-20T06:43:20;9.95;;;7.88;;
73264;SDS011;61493;51.008;14.088;2023-08-20T06:45:45;11.13;;;7.13;;
73264;SDS011;61493;51.008;14.088;2023-08-20T06:48:11;10.00;;;7.50;;
73264;SDS011;61493;51.008;14.088;2023-08-20T06:50:36;10.53;;;7.73;;
73264;SDS011;61493;51.008;14.088;2023-08-20T06:53:01;10.37;;;8.20;;
73264;SDS011;61493;51.008;14.088;2023-08-20T06:55:26;9.40;;;6.60;;
73264;SDS011;61493;51.008;14.088;2023-08-20T06:57:51;11.33;;;7.40;;
73264;SDS011;61493;51.008;14.088;2023-08-20T07:00:17;11.35;;;7.60;;
73264;SDS011;61493;51.008;14.088;2023-08-20T07:02:44;11.35;;;8.32;;
73264;SDS011;61493;51.008;14.088;2023-08-20T07:05:09;10.83;;;7.47;;
73264;SDS011;61493;51.008;14.088;2023-08-20T07:07:34;10.27;;;7.17;;
73264;SDS011;61493;51.008;14.088;2023-08-20T07:09:59;9.80;;;7.35;;
73264;SDS011;61493;51.008;14.088;2023-08-20T07:12:25;8.43;;;6.77;;
73264;SDS011;61493;51.008;14.088;2023-08-20T07:14:50;10.10;;;7.93;;
73264;SDS011;61493;51.008;14.088;2023-08-20T07:17:15;9.83;;;7.50;;
73264;SDS011;61493;51.008;14.088;2023-08-20T07:19:40;10.97;;;6.87;;
73264;SDS011;61493;51.008;14.088;2023-08-20T07:22:05;13.40;;;9.13;;
73264;SDS011;61493;51.008;14.088;2023-08-20T07:24:31;10.83;;;8.27;;
73264;SDS011;61493;51.008;14.088;2023-08-20T07:26:59;10.88;;;8.07;;
73264;SDS011;61493;51.008;14.088;2023-08-20T07:29:26;11.95;;;7.93;;
73264;SDS011;61493;51.008;14.088;2023-08-20T07:31:51;12.65;;;8.15;;
73264;SDS011;61493;51.008;14.088;2023-08-20T07:34:16;10.30;;;7.97;;
73264;SDS011;61493;51.008;14.088;2023-08-20T07:36:42;11.33;;;7.87;;
73264;SDS011;61493;51.008;14.088;2023-08-20T07:39:07;12.60;;;7.93;;
73264;SDS011;61493;51.008;14.088;2023-08-20T07:41:33;12.60;;;8.02;;
73264;SDS011;61493;51.008;14.088;2023-08-20T07:43:58;9.48;;;6.50;;
73264;SDS011;61493;51.008;14.088;2023-08-20T07:46:24;9.87;;;7.47;;
73264;SDS011;61493;51.008;14.088;2023-08-20T07:48:49;9.50;;;7.43;;
73264;SDS011;61493;51.008;14.088;2023-08-20T07:51:14;12.00;;;8.40;;
73264;SDS011;61493;51.008;14.088;2023-08-20T07:53:39;10.13;;;7.47;;
73264;SDS011;61493;51.008;14.088;2023-08-20T07:56:04;10.68;;;6.90;;
73264;SDS011;61493;51.008;14.088;2023-08-20T07:58:30;7.77;;;6.87;;
73264;SDS011;61493;51.008;14.088;2023-08-20T08:00:55;9.03;;;7.10;;
73264;SDS011;61493;51.008;14.088;2023-08-20T08:03:20;8.43;;;6.60;;
73264;SDS011;61493;51.008;14.088;2023-08-20T08:05:51;8.37;;;7.27;;
73264;SDS011;61493;51.008;14.088;2023-08-20T08:08:17;11.50;;;7.43;;
73264;SDS011;61493;51.008;14.088;2023-08-20T08:10:43;10.93;;;6.75;;
73264;SDS011;61493;51.008;14.088;2023-08-20T08:13:10;7.82;;;6.03;;
73264;SDS011;61493;51.008;14.088;2023-08-20T08:15:35;10.25;;;6.95;;
73264;SDS011;61493;51.008;14.088;2023-08-20T08:18:00;7.93;;;6.47;;
73264;SDS011;61493;51.008;14.088;2023-08-20T08:20:25;7.93;;;6.77;;
73264;SDS011;61493;51.008;14.088;2023-08-20T08:22:51;8.80;;;6.30;;
73264;SDS011;61493;51.008;14.088;2023-08-20T08:25:16;7.80;;;7.00;;
73264;SDS011;61493;51.008;14.088;2023-08-20T08:27:41;7.57;;;6.87;;
73264;SDS011;61493;51.008;14.088;2023-08-20T08:30:06;8.60;;;5.90;;
73264;SDS011;61493;51.008;14.088;2023-08-20T08:32:32;9.68;;;7.13;;
73264;SDS011;61493;51.008;14.088;2023-08-20T08:34:57;9.03;;;6.50;;
73264;SDS011;61493;51.008;14.088;2023-08-20T08:37:22;9.13;;;7.10;;
73264;SDS011;61493;51.008;14.088;2023-08-20T08:39:47;11.17;;;7.40;;
73264;SDS011;61493;51.008;14.088;2023-08-20T08:42:12;8.17;;;6.97;;
73264;SDS011;61493;51.008;14.088;2023-08-20T08:44:39;7.93;;;6.82;;
73264;SDS011;61493;51.008;14.088;2023-08-20T08:47:05;9.10;;;6.70;;
73264;SDS011;61493;51.008;14.088;2023-08-20T08:49:32;10.73;;;7.60;;
73264;SDS011;61493;51.008;14.088;2023-08-20T08:51:58;10.10;;;7.43;;
73264;SDS011;61493;51.008;14.088;2023-08-20T08:54:23;7.50;;;6.10;;
73264;SDS011;61493;51.008;14.088;2023-08-20T08:56:49;8.33;;;6.63;;
73264;SDS011;61493;51.008;14.088;2023-08-20T08:59:14;6.82;;;6.13;;
73264;SDS011;61493;51.008;14.088;2023-08-20T09:01:40;7.17;;;6.40;;
73264;SDS011;61493;51.008;14.088;2023-08-20T09:04:08;9.07;;;6.28;;
73264;SDS011;61493;51.008;14.088;2023-08-20T09:06:52;7.33;;;6.10;;
73264;SDS011;61493;51.008;14.088;2023-08-20T09:09:18;8.88;;;6.55;;
73264;SDS011;61493;51.008;14.088;2023-08-20T09:11:44;11.07;;;6.90;;
73264;SDS011;61493;51.008;14.088;2023-08-20T09:14:30;7.03;;;5.68;;
73264;SDS011;61493;51.008;14.088;2023-08-20T09:16:55;8.90;;;6.93;;
73264;SDS011;61493;51.008;14.088;2023-08-20T09:19:21;8.02;;;6.43;;
73264;SDS011;61493;51.008;14.088;2023-08-20T09:21:46;8.53;;;6.43;;
73264;SDS011;61493;51.008;14.088;2023-08-20T09:24:14;8.73;;;6.03;;
73264;SDS011;61493;51.008;14.088;2023-08-20T09:26:39;8.18;;;6.35;;
73264;SDS011;61493;51.008;14.088;2023-08-20T09:29:09;8.80;;;6.97;;
73264;SDS011;61493;51.008;14.088;2023-08-20T09:31:38;8.02;;;5.65;;
73264;SDS011;61493;51.008;14.088;2023-08-20T09:34:04;7.13;;;6.20;;
73264;SDS011;61493;51.008;14.088;2023-08-20T09:36:30;7.57;;;6.17;;
73264;SDS011;61493;51.008;14.088;2023-08-20T09:38:56;7.50;;;6.32;;
73264;SDS011;61493;51.008;14.088;2023-08-20T09:41:21;9.07;;;6.47;;
73264;SDS011;61493;51.008;14.088;2023-08-20T09:43:47;7.35;;;6.35;;
73264;SDS011;61493;51.008;14.088;2023-08-20T09:46:13;6.72;;;5.60;;
73264;SDS011;61493;51.008;14.088;2023-08-20T09:48:40;8.70;;;5.75;;
73264;SDS011;61493;51.008;14.088;2023-08-20T09:51:08;7.15;;;5.20;;
73264;SDS011;61493;51.008;14.088;2023-08-20T09:53:35;7.57;;;5.80;;
73264;SDS011;61493;51.008;14.088;2023-08-20T09:56:03;5.97;;;5.35;;
73264;SDS011;61493;51.008;14.088;2023-08-20T09:58:32;12.48;;;6.18;;
73264;SDS011;61493;51.008;14.088;2023-08-20T10:00:57;7.68;;;5.20;;
73264;SDS011;61493;51.008;14.088;2023-08-20T10:03:22;6.85;;;6.15;;
73264;SDS011;61493;51.008;14.088;2023-08-20T10:05:49;7.10;;;6.05;;
73264;SDS011;61493;51.008;14.088;2023-08-20T10:08:15;6.60;;;5.68;;
73264;SDS011;61493;51.008;14.088;2023-08-20T10:10:40;7.72;;;5.50;;
73264;SDS011;61493;51.008;14.088;2023-08-20T10:13:07;8.30;;;6.05;;
73264;SDS011;61493;51.008;14.088;2023-08-20T10:15:33;7.13;;;5.82;;
73264;SDS011;61493;51.008;14.088;2023-08-20T10:18:01;7.07;;;5.82;;
73264;SDS011;61493;51.008;14.088;2023-08-20T10:20:26;9.27;;;5.47;;
73264;SDS011;61493;51.008;14.088;2023-08-20T10:22:53;8.57;;;6.32;;
73264;SDS011;61493;51.008;14.088;2023-08-20T10:25:22;7.13;;;5.37;;
73264;SDS011;61493;51.008;14.088;2023-08-20T10:27:48;6.65;;;5.82;;
73264;SDS011;61493;51.008;14.088;2023-08-20T10:30:18;7.50;;;5.57;;
73264;SDS011;61493;51.008;14.088;2023-08-20T10:35:17;6.72;;;5.70;;
73264;SDS011;61493;51.008;14.088;2023-08-20T10:43:10;6.75;;;5.85;;
73264;SDS011;61493;51.008;14.088;2023-08-20T10:45:42;6.73;;;5.97;;
73264;SDS011;61493;51.008;14.088;2023-08-20T10:50:33;7.57;;;5.90;;
73264;SDS011;61493;51.008;14.088;2023-08-20T10:53:00;8.45;;;5.82;;
73264;SDS011;61493;51.008;14.088;2023-08-20T10:55:28;6.90;;;5.43;;
73264;SDS011;61493;51.008;14.088;2023-08-20T10:57:57;7.47;;;5.72;;
73264;SDS011;61493;51.008;14.088;2023-08-20T11:00:24;7.88;;;5.75;;
73264;SDS011;61493;51.008;14.088;2023-08-20T11:02:49;7.95;;;5.60;;
73264;SDS011;61493;51.008;14.088;2023-08-20T11:05:15;7.80;;;5.75;;
73264;SDS011;61493;51.008;14.088;2023-08-20T11:07:41;8.27;;;6.20;;
73264;SDS011;61493;51.008;14.088;2023-08-20T11:10:07;8.30;;;5.37;;
73264;SDS011;61493;51.008;14.088;2023-08-20T11:12:32;6.72;;;5.97;;
73264;SDS011;61493;51.008;14.088;2023-08-20T11:15:00;5.87;;;4.83;;
73264;SDS011;61493;51.008;14.088;2023-08-20T11:17:25;10.70;;;5.45;;
73264;SDS011;61493;51.008;14.088;2023-08-20T11:19:50;6.10;;;5.50;;
73264;SDS011;61493;51.008;14.088;2023-08-20T11:22:16;8.20;;;6.15;;
73264;SDS011;61493;51.008;14.088;2023-08-20T11:24:43;8.30;;;6.10;;
73264;SDS011;61493;51.008;14.088;2023-08-20T11:27:09;7.27;;;5.50;;
73264;SDS011;61493;51.008;14.088;2023-08-20T11:29:34;6.93;;;5.87;;
73264;SDS011;61493;51.008;14.088;2023-08-20T11:31:59;7.53;;;5.37;;
73264;SDS011;61493;51.008;14.088;2023-08-20T11:34:28;7.72;;;5.28;;
73264;SDS011;61493;51.008;14.088;2023-08-20T11:36:53;6.97;;;6.27;;
73264;SDS011;61493;51.008;14.088;2023-08-20T11:39:19;7.80;;;5.13;;
73264;SDS011;61493;51.008;14.088;2023-08-20T11:41:44;7.38;;;5.05;;
73264;SDS011;61493;51.008;14.088;2023-08-20T11:44:10;5.45;;;4.47;;
73264;SDS011;61493;51.008;14.088;2023-08-20T11:46:42;6.50;;;4.95;;
73264;SDS011;61493;51.008;14.088;2023-08-20T11:49:09;6.20;;;4.88;;
73264;SDS011;61493;51.008;14.088;2023-08-20T11:54:11;4.95;;;4.28;;
73264;SDS011;61493;51.008;14.088;2023-08-20T11:56:43;6.00;;;4.18;;
73264;SDS011;61493;51.008;14.088;2023-08-20T11:59:10;4.90;;;4.25;;
73264;SDS011;61493;51.008;14.088;2023-08-20T12:01:35;6.00;;;4.47;;
73264;SDS011;61493;51.008;14.088;2023-08-20T12:04:03;6.50;;;5.23;;
73264;SDS011;61493;51.008;14.088;2023-08-20T12:06:32;5.20;;;4.65;;
73264;SDS011;61493;51.008;14.088;2023-08-20T12:08:58;6.97;;;5.13;;
73264;SDS011;61493;51.008;14.088;2023-08-20T12:11:24;6.53;;;5.07;;
73264;SDS011;61493;51.008;14.088;2023-08-20T12:13:50;5.60;;;4.97;;
73264;SDS011;61493;51.008;14.088;2023-08-20T12:16:15;6.27;;;5.53;;
73264;SDS011;61493;51.008;14.088;2023-08-20T12:18:40;7.47;;;5.70;;
73264;SDS011;61493;51.008;14.088;2023-08-20T12:21:05;7.57;;;5.50;;
73264;SDS011;61493;51.008;14.088;2023-08-20T12:23:30;5.80;;;5.20;;
73264;SDS011;61493;51.008;14.088;2023-08-20T12:25:56;5.97;;;5.37;;
73264;SDS011;61493;51.008;14.088;2023-08-20T12:28:21;8.07;;;5.50;;
73264;SDS011;61493;51.008;14.088;2023-08-20T12:30:47;7.53;;;5.78;;
73264;SDS011;61493;51.008;14.088;2023-08-20T12:33:12;7.30;;;5.72;;
73264;SDS011;61493;51.008;14.088;2023-08-20T12:35:37;6.80;;;5.40;;
73264;SDS011;61493;51.008;14.088;2023-08-20T12:38:03;6.77;;;5.30;;
73264;SDS011;61493;51.008;14.088;2023-08-20T12:40:29;7.70;;;6.10;;
73264;SDS011;61493;51.008;14.088;2023-08-20T12:42:54;7.70;;;5.97;;
73264;SDS011;61493;51.008;14.088;2023-08-20T12:45:19;7.27;;;5.90;;
73264;SDS011;61493;51.008;14.088;2023-08-20T12:47:45;10.60;;;5.97;;
73264;SDS011;61493;51.008;14.088;2023-08-20T12:50:10;10.33;;;6.53;;
73264;SDS011;61493;51.008;14.088;2023-08-20T12:52:36;9.60;;;6.03;;
73264;SDS011;61493;51.008;14.088;2023-08-20T12:55:01;7.40;;;5.60;;
73264;SDS011;61493;51.008;14.088;2023-08-20T12:57:27;8.02;;;6.20;;
73264;SDS011;61493;51.008;14.088;2023-08-20T12:59:52;6.70;;;5.63;;
73264;SDS011;61493;51.008;14.088;2023-08-20T13:02:18;6.93;;;5.93;;
73264;SDS011;61493;51.008;14.088;2023-08-20T13:04:43;7.07;;;5.80;;
73264;SDS011;61493;51.008;14.088;2023-08-20T13:07:08;8.15;;;6.32;;
73264;SDS011;61493;51.008;14.088;2023-08-20T13:09:33;6.38;;;5.03;;
73264;SDS011;61493;51.008;14.088;2023-08-20T13:12:00;12.40;;;6.83;;
73264;SDS011;61493;51.008;14.088;2023-08-20T13:14:26;8.63;;;6.15;;
73264;SDS011;61493;51.008;14.088;2023-08-20T13:16:51;7.25;;;5.38;;
73264;SDS011;61493;51.008;14.088;2023-08-20T13:19:16;6.55;;;5.18;;
73264;SDS011;61493;51.008;14.088;2023-08-20T13:21:42;7.43;;;6.40;;
73264;SDS011;61493;51.008;14.088;2023-08-20T13:24:07;8.07;;;5.40;;
73264;SDS011;61493;51.008;14.088;2023-08-20T13:26:33;7.75;;;5.32;;
73264;SDS011;61493;51.008;14.088;2023-08-20T13:28:59;9.47;;;6.23;;
73264;SDS011;61493;51.008;14.088;2023-08-20T13:31:24;7.20;;;5.93;;
73264;SDS011;61493;51.008;14.088;2023-08-20T13:33:49;6.63;;;5.77;;
73264;SDS011;61493;51.008;14.088;2023-08-20T13:36:14;8.93;;;6.20;;
73264;SDS011;61493;51.008;14.088;2023-08-20T13:38:41;7.55;;;5.88;;
73264;SDS011;61493;51.008;14.088;2023-08-20T13:41:07;7.33;;;5.57;;
73264;SDS011;61493;51.008;14.088;2023-08-20T13:43:32;10.43;;;6.10;;
73264;SDS011;61493;51.008;14.088;2023-08-20T13:45:57;9.53;;;6.07;;
73264;SDS011;61493;51.008;14.088;2023-08-20T13:48:22;8.43;;;5.97;;
73264;SDS011;61493;51.008;14.088;2023-08-20T13:50:47;7.57;;;5.50;;
73264;SDS011;61493;51.008;14.088;2023-08-20T13:53:12;6.73;;;5.00;;
73264;SDS011;61493;51.008;14.088;2023-08-20T13:55:38;8.63;;;5.73;;
73264;SDS011;61493;51.008;14.088;2023-08-20T13:58:03;7.50;;;5.03;;
73264;SDS011;61493;51.008;14.088;2023-08-20T14:00:28;7.93;;;5.20;;
73264;SDS011;61493;51.008;14.088;2023-08-20T14:02:53;8.27;;;6.00;;
73264;SDS011;61493;51.008;14.088;2023-08-20T14:05:18;7.03;;;5.43;;
73264;SDS011;61493;51.008;14.088;2023-08-20T14:07:44;6.70;;;5.22;;
73264;SDS011;61493;51.008;14.088;2023-08-20T14:10:09;8.97;;;6.27;;
73264;SDS011;61493;51.008;14.088;2023-08-20T14:12:35;7.05;;;5.50;;
73264;SDS011;61493;51.008;14.088;2023-08-20T14:15:00;7.50;;;5.20;;
73264;SDS011;61493;51.008;14.088;2023-08-20T14:17:25;7.97;;;5.65;;
73264;SDS011;61493;51.008;14.088;2023-08-20T14:19:51;6.93;;;5.50;;
73264;SDS011;61493;51.008;14.088;2023-08-20T14:22:16;6.80;;;5.93;;
73264;SDS011;61493;51.008;14.088;2023-08-20T14:24:42;7.93;;;5.78;;
73264;SDS011;61493;51.008;14.088;2023-08-20T14:27:07;6.47;;;5.37;;
73264;SDS011;61493;51.008;14.088;2023-08-20T14:29:32;9.75;;;5.82;;
73264;SDS011;61493;51.008;14.088;2023-08-20T14:31:58;7.53;;;5.57;;
73264;SDS011;61493;51.008;14.088;2023-08-20T14:34:23;7.20;;;5.47;;
73264;SDS011;61493;51.008;14.088;2023-08-20T14:36:48;8.20;;;6.00;;
73264;SDS011;61493;51.008;14.088;2023-08-20T14:39:13;5.97;;;5.37;;
73264;SDS011;61493;51.008;14.088;2023-08-20T14:41:39;8.65;;;6.72;;
73264;SDS011;61493;51.008;14.088;2023-08-20T14:44:04;8.30;;;5.32;;
73264;SDS011;61493;51.008;14.088;2023-08-20T14:46:30;8.98;;;5.82;;
73264;SDS011;61493;51.008;14.088;2023-08-20T14:48:55;7.97;;;5.50;;